createdAt,value
2019-03-04T00:00:40.060Z,19.6
2019-03-04T00:01:30.429Z,19.7
2019-03-04T00:02:20.187Z,19.7
2019-03-04T00:03:10.522Z,19.7
2019-03-04T00:04:00.577Z,19.7
2019-03-04T00:04:50.359Z,19.7
2019-03-04T00:05:40.704Z,19.7
2019-03-04T00:06:30.755Z,19.7
2019-03-04T00:07:20.814Z,19.7
2019-03-04T00:08:10.864Z,19.7
2019-03-04T00:09:00.924Z,19.7
2019-03-04T00:09:51.002Z,19.7
2019-03-04T00:10:40.782Z,19.7
2019-03-04T00:11:30.836Z,19.7
2019-03-04T00:12:21.158Z,19.7
2019-03-04T00:13:10.989Z,19.7
2019-03-04T00:14:01.009Z,19.7
2019-03-04T00:14:51.066Z,19.7
2019-03-04T00:15:41.129Z,19.7
2019-03-04T00:16:31.198Z,19.7
2019-03-04T00:17:21.238Z,19.7
2019-03-04T00:18:11.577Z,19.7
2019-03-04T00:19:01.633Z,19.7
2019-03-04T00:19:51.690Z,19.7
2019-03-04T00:20:41.476Z,19.7
2019-03-04T00:21:31.534Z,19.7
2019-03-04T00:22:21.873Z,19.7
2019-03-04T00:23:11.648Z,19.7
2019-03-04T00:24:01.724Z,19.7
2019-03-04T00:24:51.771Z,19.7
2019-03-04T00:25:42.093Z,19.7
2019-03-04T00:26:32.165Z,19.7
2019-03-04T00:27:22.229Z,19.7
2019-03-04T00:28:12.278Z,19.7
2019-03-04T00:29:02.347Z,19.7
2019-03-04T00:29:52.407Z,19.7
2019-03-04T00:30:42.178Z,19.7
2019-03-04T00:31:32.528Z,19.7
2019-03-04T00:32:22.573Z,19.7
2019-03-04T00:33:12.083Z,19.7
2019-03-04T00:34:02.425Z,19.7
2019-03-04T00:34:52.481Z,19.7
2019-03-04T00:35:42.532Z,19.7
2019-03-04T00:36:32.592Z,19.7
2019-03-04T00:37:22.650Z,19.7
2019-03-04T00:38:12.698Z,19.7
2019-03-04T00:39:02.765Z,19.7
2019-03-04T00:39:52.822Z,19.7
2019-03-04T00:40:43.157Z,19.7
2019-03-04T00:41:33.267Z,19.7
2019-03-04T00:42:23.280Z,19.7
2019-03-04T00:43:13.339Z,19.7
2019-03-04T00:44:03.389Z,19.7
2019-03-04T00:44:53.185Z,19.8
2019-03-04T00:45:43.507Z,19.7
2019-03-04T00:46:33.304Z,19.8
2019-03-04T00:47:23.087Z,19.8
2019-03-04T00:48:13.684Z,19.7
2019-03-04T00:49:03.201Z,19.7
2019-03-04T00:49:53.537Z,19.8
2019-03-04T00:50:43.868Z,19.8
2019-03-04T00:51:33.929Z,19.7
2019-03-04T00:52:23.713Z,19.8
2019-03-04T00:53:14.044Z,19.8
2019-03-04T00:54:04.103Z,19.8
2019-03-04T00:54:54.156Z,19.8
2019-03-04T00:55:44.214Z,19.8
2019-03-04T00:56:34.007Z,19.8
2019-03-04T00:57:24.076Z,19.8
2019-03-04T00:58:14.394Z,19.8
2019-03-04T00:59:04.450Z,19.8
2019-03-04T00:59:54.501Z,19.8
2019-03-04T01:00:44.563Z,19.7
2019-03-04T01:01:34.351Z,19.8
2019-03-04T01:02:24.676Z,19.8
2019-03-04T01:03:14.747Z,19.8
2019-03-04T01:04:04.528Z,19.8
2019-03-04T01:04:54.876Z,19.8
2019-03-04T01:05:44.913Z,19.7
2019-03-04T01:06:34.986Z,19.8
2019-03-04T01:07:24.768Z,19.8
2019-03-04T01:08:14.823Z,19.8
2019-03-04T01:09:04.878Z,19.8
2019-03-04T01:09:55.218Z,19.8
2019-03-04T01:10:45.325Z,19.8
2019-03-04T01:11:35.338Z,19.8
2019-03-04T01:12:25.386Z,19.8
2019-03-04T01:13:15.450Z,19.8
2019-03-04T01:14:05.232Z,19.8
2019-03-04T01:14:55.565Z,19.8
2019-03-04T01:15:45.405Z,19.8
2019-03-04T01:16:35.675Z,19.8
2019-03-04T01:17:25.737Z,19.8
2019-03-04T01:18:15.811Z,19.8
2019-03-04T01:19:05.855Z,19.8
2019-03-04T01:19:55.912Z,19.8
2019-03-04T01:20:45.971Z,19.8
2019-03-04T01:21:35.767Z,19.8
2019-03-04T01:22:26.092Z,19.8
2019-03-04T01:23:16.149Z,19.8
2019-03-04T01:24:05.944Z,19.8
2019-03-04T01:24:56.008Z,19.8
2019-03-04T01:25:46.325Z,19.8
2019-03-04T01:26:36.387Z,19.8
2019-03-04T01:27:26.439Z,19.8
2019-03-04T01:28:15.964Z,19.8
2019-03-04T01:29:06.295Z,19.8
2019-03-04T01:29:56.672Z,19.8
2019-03-04T01:30:46.689Z,19.8
2019-03-04T01:31:36.747Z,19.8
2019-03-04T01:32:26.802Z,19.8
2019-03-04T01:33:16.569Z,19.8
2019-03-04T01:34:06.914Z,19.8
2019-03-04T01:34:56.977Z,19.8
2019-03-04T01:35:47.029Z,19.8
2019-03-04T01:36:37.087Z,19.8
2019-03-04T01:37:27.151Z,19.8
2019-03-04T01:38:16.942Z,19.8
2019-03-04T01:39:06.994Z,19.8
2019-03-04T01:39:57.325Z,19.8
2019-03-04T01:40:47.389Z,19.8
2019-03-04T01:41:37.441Z,19.8
2019-03-04T01:42:27.516Z,19.8
2019-03-04T01:43:17.318Z,19.8
2019-03-04T01:44:07.626Z,19.8
2019-03-04T01:44:57.676Z,19.8
2019-03-04T01:45:47.739Z,19.8
2019-03-04T01:46:37.794Z,19.8
2019-03-04T01:47:27.854Z,19.8
2019-03-04T01:48:17.913Z,19.8
2019-03-04T01:49:07.974Z,19.8
2019-03-04T01:49:58.037Z,19.8
2019-03-04T01:50:47.806Z,19.8
2019-03-04T01:51:38.151Z,19.8
2019-03-04T01:52:28.273Z,19.8
2019-03-04T01:53:18.503Z,19.8
2019-03-04T01:54:08.054Z,19.8
2019-03-04T01:54:58.380Z,19.8
2019-03-04T01:55:48.435Z,19.8
2019-03-04T01:56:38.265Z,19.8
2019-03-04T01:57:28.560Z,19.8
2019-03-04T01:58:18.338Z,19.8
2019-03-04T01:59:08.673Z,19.8
2019-03-04T01:59:58.188Z,19.8
2019-03-04T02:00:48.785Z,19.8
2019-03-04T02:01:38.855Z,19.8
2019-03-04T02:02:28.913Z,19.8
2019-03-04T02:03:18.972Z,19.8
2019-03-04T02:04:08.737Z,19.8
2019-03-04T02:04:59.076Z,19.8
2019-03-04T02:05:49.147Z,19.8
2019-03-04T02:06:38.645Z,19.8
2019-03-04T02:07:29.264Z,19.8
2019-03-04T02:08:19.309Z,19.8
2019-03-04T02:09:09.375Z,19.8
2019-03-04T02:09:59.424Z,19.8
2019-03-04T02:10:49.484Z,19.8
2019-03-04T02:11:39.554Z,19.8
2019-03-04T02:12:29.607Z,19.8
2019-03-04T02:13:19.669Z,19.8
2019-03-04T02:14:09.782Z,19.8
2019-03-04T02:14:59.829Z,19.8
2019-03-04T02:15:49.582Z,19.8
2019-03-04T02:16:39.628Z,19.8
2019-03-04T02:17:29.422Z,19.8
2019-03-04T02:18:19.751Z,19.8
2019-03-04T02:19:10.094Z,19.8
2019-03-04T02:19:59.862Z,19.8
2019-03-04T02:20:49.927Z,19.8
2019-03-04T02:21:39.979Z,19.8
2019-03-04T02:22:30.041Z,19.8
2019-03-04T02:23:20.106Z,19.8
2019-03-04T02:24:09.942Z,19.8
2019-03-04T02:25:00.476Z,19.8
2019-03-04T02:25:50.551Z,19.8
2019-03-04T02:26:40.596Z,19.8
2019-03-04T02:27:30.384Z,19.8
2019-03-04T02:28:20.719Z,19.8
2019-03-04T02:29:10.783Z,19.8
2019-03-04T02:30:00.882Z,19.8
2019-03-04T02:30:50.908Z,19.8
2019-03-04T02:31:40.971Z,19.8
2019-03-04T02:32:31.048Z,19.8
2019-03-04T02:33:21.093Z,19.8
2019-03-04T02:34:11.164Z,19.8
2019-03-04T02:35:01.068Z,19.8
2019-03-04T02:35:50.734Z,19.8
2019-03-04T02:36:41.311Z,19.8
2019-03-04T02:37:31.399Z,19.8
2019-03-04T02:38:21.426Z,19.8
2019-03-04T02:39:11.218Z,19.8
2019-03-04T02:40:01.568Z,19.8
2019-03-04T02:40:51.607Z,19.8
2019-03-04T02:41:41.669Z,19.8
2019-03-04T02:42:31.725Z,19.8
2019-03-04T02:43:21.791Z,19.8
2019-03-04T02:44:11.851Z,19.8
2019-03-04T02:45:01.922Z,19.8
2019-03-04T02:45:51.969Z,19.8
2019-03-04T02:46:42.021Z,19.8
2019-03-04T02:47:32.098Z,19.8
2019-03-04T02:48:22.146Z,19.8
2019-03-04T02:49:12.207Z,19.8
2019-03-04T02:50:02.267Z,19.8
2019-03-04T02:50:52.320Z,19.8
2019-03-04T02:51:42.110Z,19.8
2019-03-04T02:52:32.483Z,19.8
2019-03-04T02:53:22.303Z,19.8
2019-03-04T02:54:12.297Z,19.8
2019-03-04T02:55:02.623Z,19.8
2019-03-04T02:55:52.671Z,19.8
2019-03-04T02:56:42.722Z,19.8
2019-03-04T02:57:32.781Z,19.8
2019-03-04T02:58:22.849Z,19.8
2019-03-04T02:59:12.904Z,19.8
2019-03-04T03:00:03.002Z,19.8
2019-03-04T03:00:53.049Z,19.8
2019-03-04T03:01:42.820Z,19.8
2019-03-04T03:02:32.883Z,19.8
2019-03-04T03:03:22.661Z,19.8
2019-03-04T03:04:13.263Z,19.8
2019-03-04T06:05:44.914Z,20.1
2019-03-04T06:06:34.972Z,20.1
2019-03-04T06:07:25.038Z,20.1
2019-03-04T06:08:14.823Z,20.1
2019-03-04T06:09:04.877Z,20.1
2019-03-04T06:09:55.197Z,20.1
2019-03-04T06:10:45.253Z,20.1
2019-03-04T06:11:35.039Z,20.1
2019-03-04T06:12:25.377Z,20.1
2019-03-04T06:13:15.157Z,20.1
2019-03-04T06:14:05.510Z,20.1
2019-03-04T06:14:55.562Z,20.1
2019-03-04T06:15:45.332Z,20.1
2019-03-04T06:16:35.674Z,20.2
2019-03-04T06:17:25.444Z,20.2
2019-03-04T06:18:15.508Z,20.1
2019-03-04T06:19:05.574Z,20.2
2019-03-04T06:19:55.899Z,20.2
2019-03-04T06:20:45.958Z,20.2
2019-03-04T06:21:36.007Z,20.2
2019-03-04T06:22:25.790Z,20.2
2019-03-04T06:23:16.126Z,20.3
2019-03-04T06:24:06.189Z,20.3
2019-03-04T06:24:55.968Z,20.3
2019-03-04T06:25:46.304Z,20.3
2019-03-04T06:26:36.363Z,20.3
2019-03-04T06:27:26.161Z,20.3
2019-03-04T06:28:15.938Z,20.3
2019-03-04T06:29:06.258Z,20.3
2019-03-04T06:29:56.329Z,20.3
2019-03-04T06:30:46.655Z,20.3
2019-03-04T06:31:36.746Z,20.3
2019-03-04T06:32:26.785Z,20.3
2019-03-04T06:33:16.829Z,20.3
2019-03-04T06:34:06.886Z,20.3
2019-03-04T06:34:56.670Z,20.3
2019-03-04T06:35:47.007Z,20.3
2019-03-04T06:36:37.068Z,20.3
2019-03-04T06:37:27.126Z,20.3
2019-03-04T06:38:17.178Z,20.3
2019-03-04T06:39:06.690Z,20.3
2019-03-04T06:39:57.032Z,20.3
2019-03-04T06:40:47.350Z,20.3
2019-03-04T06:41:37.142Z,20.3
2019-03-04T06:42:27.479Z,20.3
2019-03-04T06:43:17.531Z,20.4
2019-03-04T06:44:07.585Z,20.4
2019-03-04T06:44:57.643Z,20.4
2019-03-04T06:45:47.432Z,20.4
2019-03-04T06:46:37.758Z,20.4
2019-03-04T06:47:27.822Z,20.4
2019-03-04T06:48:17.615Z,20.4
2019-03-04T06:49:07.659Z,20.4
2019-03-04T06:49:57.985Z,20.4
2019-03-04T06:50:48.069Z,20.4
2019-03-04T06:51:37.833Z,20.4
2019-03-04T06:52:28.169Z,20.4
2019-03-04T06:53:18.233Z,20.4
2019-03-04T06:54:08.279Z,20.5
2019-03-04T06:54:58.077Z,20.5
2019-03-04T06:55:48.124Z,20.5
2019-03-04T06:56:38.456Z,20.5
2019-03-04T06:57:29.722Z,20.5
2019-03-04T06:58:18.627Z,20.5
2019-03-04T06:59:08.355Z,20.6
2019-03-04T06:59:58.414Z,20.5
2019-03-04T07:00:48.748Z,20.6
2019-03-04T07:01:38.811Z,20.6
2019-03-04T07:02:28.869Z,20.6
2019-03-04T07:03:18.655Z,20.6
2019-03-04T07:05:44.595Z,20.6
2019-03-04T07:06:34.661Z,20.6
2019-03-04T07:07:24.988Z,20.6
2019-03-04T07:08:15.043Z,20.7
2019-03-04T07:09:04.824Z,20.7
2019-03-04T07:09:54.896Z,20.7
2019-03-04T07:10:44.951Z,20.7
2019-03-04T07:11:35.271Z,20.7
2019-03-04T07:12:25.328Z,20.7
2019-03-04T07:13:15.433Z,20.7
2019-03-04T07:14:05.183Z,20.8
2019-03-04T07:14:55.500Z,20.7
2019-03-04T07:15:45.298Z,20.8
2019-03-04T07:16:35.359Z,20.8
2019-03-04T07:17:25.403Z,20.8
2019-03-04T07:18:15.735Z,20.8
2019-03-04T07:19:05.798Z,20.8
2019-03-04T07:19:55.845Z,20.8
2019-03-04T07:20:45.636Z,20.8
2019-03-04T07:21:35.973Z,20.8
2019-03-04T07:22:25.750Z,20.8
2019-03-04T07:23:16.080Z,20.8
2019-03-04T07:24:06.211Z,20.8
2019-03-04T07:24:55.922Z,20.8
2019-03-04T07:25:46.254Z,20.8
2019-03-04T07:26:35.797Z,20.8
2019-03-04T07:27:26.096Z,20.8
2019-03-04T07:28:16.435Z,20.8
2019-03-04T07:29:06.487Z,20.8
2019-03-04T07:29:56.273Z,20.8
2019-03-04T07:30:46.319Z,20.8
2019-03-04T07:31:36.659Z,20.8
2019-03-04T07:32:26.721Z,20.8
2019-03-04T07:33:16.859Z,20.8
2019-03-04T07:34:06.288Z,20.8
2019-03-04T07:34:56.907Z,20.9
2019-03-04T07:35:46.949Z,20.9
2019-03-04T07:36:37.002Z,20.8
2019-03-04T07:37:27.062Z,20.9
2019-03-04T07:38:16.844Z,20.9
2019-03-04T07:39:07.179Z,20.9
2019-03-04T07:39:57.248Z,20.9
2019-03-04T07:40:47.019Z,20.9
2019-03-04T07:41:37.359Z,20.9
2019-03-04T07:42:27.139Z,20.9
2019-03-04T07:43:17.197Z,20.9
2019-03-04T07:44:07.265Z,20.9
2019-03-04T07:44:57.589Z,20.9
2019-03-04T07:45:47.645Z,20.9
2019-03-04T07:46:37.706Z,20.9
2019-03-04T07:47:27.492Z,20.9
2019-03-04T07:48:17.576Z,20.9
2019-03-04T07:49:07.610Z,20.9
2019-03-04T07:49:57.673Z,20.9
2019-03-04T07:50:48.006Z,20.9
2019-03-04T07:51:38.069Z,20.9
2019-03-04T07:52:27.576Z,20.9
2019-03-04T07:53:19.882Z,20.9
2019-03-04T07:54:07.955Z,20.9
2019-03-04T07:54:58.299Z,20.9
2019-03-04T07:55:48.358Z,20.9
2019-03-04T07:56:38.411Z,20.9
2019-03-04T07:57:28.470Z,20.9
2019-03-04T07:58:18.256Z,20.9
2019-03-04T07:59:08.313Z,20.9
2019-03-04T07:59:58.644Z,20.9
2019-03-04T08:00:48.755Z,20.9
2019-03-04T08:01:38.768Z,20.9
2019-03-04T08:02:28.816Z,20.9
2019-03-04T08:03:18.338Z,20.9
2019-03-04T08:04:08.933Z,20.9
2019-03-04T08:04:58.988Z,20.9
2019-03-04T08:05:49.055Z,20.9
2019-03-04T08:06:38.578Z,20.9
2019-03-04T08:07:29.173Z,20.9
2019-03-04T08:08:19.228Z,20.9
2019-03-04T08:09:09.300Z,20.9
2019-03-04T08:09:59.060Z,20.9
2019-03-04T08:10:49.400Z,20.9
2019-03-04T08:11:39.195Z,20.9
2019-03-04T08:12:29.530Z,21
2019-03-04T08:13:19.315Z,20.9
2019-03-04T08:14:09.087Z,21
2019-03-04T08:14:59.698Z,21
2019-03-04T08:15:49.760Z,20.9
2019-03-04T08:16:39.827Z,20.9
2019-03-04T08:17:29.870Z,21
2019-03-04T08:18:19.660Z,20.9
2019-03-04T08:19:09.992Z,20.9
2019-03-04T08:20:00.169Z,21
2019-03-04T08:20:50.113Z,21
2019-03-04T08:21:39.620Z,21
2019-03-04T08:22:30.247Z,20.9
2019-03-04T08:23:20.010Z,21
2019-03-04T08:24:10.346Z,21
2019-03-04T08:25:00.405Z,21
2019-03-04T08:25:50.454Z,21
2019-03-04T08:26:40.239Z,21
2019-03-04T08:27:30.564Z,21
2019-03-04T08:28:20.639Z,21
2019-03-04T08:29:10.692Z,21
2019-03-04T08:30:00.802Z,21
2019-03-04T08:30:50.820Z,21
2019-03-04T08:31:40.590Z,21
2019-03-04T08:32:30.926Z,21
2019-03-04T08:33:20.821Z,21
2019-03-04T08:34:11.035Z,21
2019-03-04T08:35:01.075Z,21
2019-03-04T08:35:51.161Z,21.1
2019-03-04T08:36:41.214Z,21
2019-03-04T08:37:31.278Z,21
2019-03-04T08:38:21.337Z,21
2019-03-04T08:39:11.386Z,21
2019-03-04T08:40:01.450Z,21
2019-03-04T08:40:51.503Z,21
2019-03-04T08:41:41.302Z,21
2019-03-04T08:42:31.358Z,21.1
2019-03-04T08:43:21.406Z,21.1
2019-03-04T08:44:11.738Z,21.1
2019-03-04T08:45:01.806Z,21.1
2019-03-04T08:45:51.856Z,21.1
2019-03-04T08:46:41.929Z,21.1
2019-03-04T08:47:31.989Z,21.1
2019-03-04T08:48:22.053Z,21.1
2019-03-04T08:49:12.102Z,21.1
2019-03-04T08:50:02.171Z,21.1
2019-03-04T08:50:52.217Z,21.1
2019-03-04T08:51:41.997Z,21.1
2019-03-04T08:52:32.057Z,21.1
2019-03-04T08:53:22.103Z,21.1
2019-03-04T08:54:12.469Z,21.1
2019-03-04T08:55:02.246Z,21.1
2019-03-04T08:55:52.570Z,21.1
2019-03-04T08:56:42.347Z,21.1
2019-03-04T08:57:32.397Z,21.1
2019-03-04T08:58:22.460Z,21.1
2019-03-04T08:59:12.789Z,21.1
2019-03-04T09:00:52.902Z,21.1
2019-03-04T09:01:42.965Z,21.1
2019-03-04T09:03:22.875Z,21.1
2019-03-04T09:07:33.378Z,21.1
2019-03-04T09:09:13.210Z,21.1
2019-03-04T09:10:03.554Z,21.1
2019-03-04T09:27:34.503Z,21.2
2019-03-04T09:31:45.071Z,21.2
2019-03-04T09:32:34.888Z,21.2
2019-03-04T09:33:24.919Z,21.2
2019-03-04T09:34:14.971Z,21.2
2019-03-04T09:35:05.295Z,21.2
2019-03-04T09:35:55.368Z,21.2
2019-03-04T09:36:45.148Z,21.2
2019-03-04T09:37:35.478Z,21.2
2019-03-04T09:38:25.536Z,21.2
2019-03-04T09:39:15.318Z,21.2
2019-03-04T09:40:05.652Z,21.2
2019-03-04T09:40:55.430Z,21.2
2019-03-04T09:41:45.771Z,21.2
2019-03-04T09:42:35.818Z,21.2
2019-03-04T09:43:25.613Z,21.2
2019-03-04T09:44:15.672Z,21.2
2019-03-04T09:45:06.063Z,21.2
2019-03-04T09:45:56.058Z,21.2
2019-03-04T09:46:46.120Z,21.2
2019-03-04T09:47:36.177Z,21.2
2019-03-04T09:48:26.235Z,21.2
2019-03-04T09:49:16.306Z,21.2
2019-03-04T09:50:06.069Z,21.2
2019-03-04T09:50:56.420Z,21.2
2019-03-04T09:51:46.510Z,21.2
2019-03-04T09:52:36.520Z,21.2
2019-03-04T09:53:26.323Z,21.2
2019-03-04T09:54:16.649Z,21.2
2019-03-04T09:55:06.699Z,21.2
2019-03-04T09:55:56.755Z,21.2
2019-03-04T09:56:46.654Z,21.2
2019-03-04T09:57:36.905Z,21.2
2019-03-04T09:58:26.987Z,21.3
2019-03-04T09:59:16.717Z,21.2
2019-03-04T10:00:07.049Z,21.3
2019-03-04T10:00:57.107Z,21.2
2019-03-04T10:01:47.178Z,21.3
2019-03-04T10:02:37.277Z,21.2
2019-03-04T10:03:27.274Z,21.3
2019-03-04T10:04:17.342Z,21.3
2019-03-04T10:06:44.711Z,21.3
2019-03-04T10:07:34.778Z,21.3
2019-03-04T10:08:33.606Z,21.3
2019-03-04T10:09:14.892Z,21.3
2019-03-04T10:10:04.677Z,21.3
2019-03-04T10:10:54.456Z,21.3
2019-03-04T10:11:45.061Z,21.3
2019-03-04T10:12:35.111Z,21.3
2019-03-04T10:13:25.184Z,21.3
2019-03-04T10:14:14.959Z,21.3
2019-03-04T10:15:09.745Z,21.2
2019-03-04T10:15:55.367Z,21.3
2019-03-04T10:16:45.413Z,21.3
2019-03-04T10:17:35.193Z,21.3
2019-03-04T10:18:25.533Z,21.3
2019-03-04T10:19:15.310Z,21.3
2019-03-04T10:20:05.640Z,21.3
2019-03-04T10:20:55.701Z,21.3
2019-03-04T10:21:45.488Z,21.3
2019-03-04T10:22:35.554Z,21.3
2019-03-04T10:23:25.610Z,21.3
2019-03-04T10:24:15.391Z,21.3
2019-03-04T10:25:05.998Z,21.3
2019-03-04T10:25:56.053Z,21.3
2019-03-04T10:26:46.107Z,21.3
2019-03-04T10:27:36.163Z,21.3
2019-03-04T10:28:25.958Z,21.3
2019-03-04T10:29:16.290Z,21.3
2019-03-04T10:30:06.362Z,21.3
2019-03-04T10:30:56.433Z,21.3
2019-03-04T10:31:46.456Z,21.3
2019-03-04T10:32:36.517Z,21.3
2019-03-04T10:33:26.633Z,21.3
2019-03-04T10:34:16.642Z,21.3
2019-03-04T10:35:06.450Z,21.3
2019-03-04T10:35:56.752Z,21.3
2019-03-04T10:36:46.815Z,21.3
2019-03-04T10:37:36.870Z,21.3
2019-03-04T10:38:26.922Z,21.3
2019-03-04T10:39:23.207Z,21.3
2019-03-04T10:40:06.785Z,21.3
2019-03-04T10:40:59.059Z,21.3
2019-03-04T10:41:46.890Z,21.3
2019-03-04T10:42:37.222Z,21.3
2019-03-04T10:43:27.010Z,21.3
2019-03-04T10:44:17.332Z,21.3
2019-03-04T10:45:06.844Z,21.3
2019-03-04T10:45:57.457Z,21.3
2019-03-04T10:46:47.252Z,21.3
2019-03-04T10:47:37.567Z,21.3
2019-03-04T10:48:27.348Z,21.3
2019-03-04T10:49:17.694Z,21.3
2019-03-04T10:50:07.749Z,21.3
2019-03-04T10:50:57.806Z,21.3
2019-03-04T10:51:47.884Z,21.3
2019-03-04T10:52:37.919Z,21.3
2019-03-04T10:53:27.979Z,21.3
2019-03-04T10:54:18.037Z,21.3
2019-03-04T10:55:08.101Z,21.3
2019-03-04T10:55:57.873Z,21.3
2019-03-04T10:56:48.216Z,21.3
2019-03-04T10:57:38.274Z,21.3
2019-03-04T10:58:28.331Z,21.3
2019-03-04T10:59:18.383Z,21.3
2019-03-04T11:00:08.446Z,21.3
2019-03-04T11:00:58.254Z,21.3
2019-03-04T11:01:51.025Z,21.3
2019-03-04T11:02:38.336Z,21.3
2019-03-04T11:03:28.674Z,21.3
2019-03-04T11:04:18.730Z,21.3
2019-03-04T11:05:08.508Z,21.3
2019-03-04T11:05:58.568Z,21.3
2019-03-04T11:06:48.635Z,21.2
2019-03-04T11:07:38.725Z,21.2
2019-03-04T11:08:28.781Z,21.2
2019-03-04T11:10:58.948Z,21.1
2019-03-04T11:11:49.260Z,21.1
2019-03-04T11:12:39.308Z,21
2019-03-04T11:13:29.383Z,20.9
2019-03-04T11:14:19.173Z,20.8
2019-03-04T11:15:09.493Z,20.8
2019-03-04T11:15:59.275Z,20.8
2019-03-04T11:16:49.613Z,20.8
2019-03-04T11:17:39.393Z,20.8
2019-03-04T11:18:29.451Z,20.8
2019-03-04T11:19:19.786Z,20.8
2019-03-04T11:20:09.842Z,20.8
2019-03-04T11:20:59.907Z,20.8
2019-03-04T11:21:49.684Z,20.9
2019-03-04T11:22:39.743Z,20.9
2019-03-04T11:23:30.075Z,20.8
2019-03-04T11:24:20.140Z,20.9
2019-03-04T11:25:10.187Z,20.8
2019-03-04T11:26:00.253Z,20.9
2019-03-04T11:26:50.309Z,20.9
2019-03-04T11:27:40.097Z,20.9
2019-03-04T11:28:30.414Z,20.9
2019-03-04T11:29:20.490Z,20.9
2019-03-04T11:30:10.537Z,20.9
2019-03-04T11:31:00.607Z,20.9
2019-03-04T11:31:50.669Z,20.9
2019-03-04T11:32:40.762Z,20.9
2019-03-04T11:33:30.765Z,20.9
2019-03-04T11:34:20.570Z,20.9
2019-03-04T11:35:10.889Z,20.9
2019-03-04T11:36:00.951Z,20.9
2019-03-04T11:36:51.009Z,20.9
2019-03-04T11:37:41.082Z,20.9
2019-03-04T11:38:30.844Z,20.9
2019-03-04T11:39:21.184Z,20.9
2019-03-04T11:40:11.242Z,20.9
2019-03-04T11:41:01.292Z,20.9
2019-03-04T11:41:51.356Z,20.9
2019-03-04T11:42:41.416Z,20.9
2019-03-04T11:43:31.202Z,20.9
2019-03-04T11:44:21.529Z,20.9
2019-03-04T11:45:11.594Z,20.9
2019-03-04T11:46:01.657Z,20.9
2019-03-04T11:46:51.716Z,20.9
2019-03-04T11:47:41.761Z,20.9
2019-03-04T11:48:31.819Z,20.9
2019-03-04T11:49:21.926Z,20.9
2019-03-04T11:50:11.446Z,20.9
2019-03-04T11:51:01.719Z,20.9
2019-03-04T11:51:52.056Z,20.9
2019-03-04T11:52:42.113Z,20.9
2019-03-04T11:53:32.173Z,20.9
2019-03-04T11:54:22.228Z,20.9
2019-03-04T11:55:12.308Z,20.9
2019-03-04T11:56:02.348Z,20.9
2019-03-04T11:56:52.135Z,20.9
2019-03-04T11:57:42.195Z,20.9
2019-03-04T11:58:32.518Z,20.9
2019-03-04T11:59:22.623Z,20.9
2019-03-04T12:00:12.373Z,20.9
2019-03-04T12:01:02.709Z,20.9
2019-03-04T12:01:52.495Z,20.9
2019-03-04T12:02:42.811Z,20.9
2019-03-04T12:03:32.877Z,20.9
2019-03-04T12:04:22.673Z,20.9
2019-03-04T12:06:44.361Z,20.9
2019-03-04T12:07:34.690Z,20.9
2019-03-04T12:08:24.738Z,20.9
2019-03-04T12:09:14.787Z,20.9
2019-03-04T12:10:04.844Z,20.9
2019-03-04T12:10:54.902Z,20.9
2019-03-04T12:11:44.957Z,20.9
2019-03-04T12:12:34.747Z,20.9
2019-03-04T12:13:25.082Z,20.9
2019-03-04T12:14:15.139Z,20.9
2019-03-04T12:15:04.942Z,20.9
2019-03-04T12:15:54.968Z,20.9
2019-03-04T12:16:45.317Z,20.9
2019-03-04T12:17:35.094Z,20.9
2019-03-04T12:18:25.422Z,20.9
2019-03-04T12:19:15.532Z,20.9
2019-03-04T12:20:05.551Z,20.9
2019-03-04T12:20:55.602Z,20.9
2019-03-04T12:21:45.396Z,20.9
2019-03-04T12:22:35.447Z,20.9
2019-03-04T12:23:25.789Z,20.9
2019-03-04T12:24:15.849Z,20.9
2019-03-04T12:25:05.896Z,20.9
2019-03-04T12:25:55.682Z,20.9
2019-03-04T12:26:46.011Z,20.9
2019-03-04T12:27:35.847Z,20.9
2019-03-04T12:28:26.130Z,20.9
2019-03-04T12:29:16.197Z,20.9
2019-03-04T12:30:05.707Z,20.9
2019-03-04T12:30:56.304Z,20.9
2019-03-04T12:31:46.374Z,20.9
2019-03-04T12:32:36.421Z,20.9
2019-03-04T12:33:26.479Z,20.9
2019-03-04T12:34:25.712Z,20.9
2019-03-04T12:35:06.317Z,20.9
2019-03-04T12:35:56.656Z,20.9
2019-03-04T12:36:46.716Z,20.9
2019-03-04T12:37:36.785Z,20.9
2019-03-04T12:38:26.833Z,20.9
2019-03-04T12:39:16.624Z,20.9
2019-03-04T12:40:07.000Z,21
2019-03-04T12:40:57.015Z,20.9
2019-03-04T12:41:47.103Z,20.9
2019-03-04T12:42:37.138Z,20.9
2019-03-04T12:43:27.188Z,20.9
2019-03-04T12:44:16.974Z,20.9
2019-03-04T12:45:07.308Z,20.9
2019-03-04T12:45:57.352Z,20.9
2019-03-04T12:46:47.418Z,20.9
2019-03-04T12:47:37.475Z,20.9
2019-03-04T12:48:27.538Z,20.9
2019-03-04T12:49:17.592Z,20.9
2019-03-04T12:50:07.380Z,21
2019-03-04T12:50:57.443Z,20.9
2019-03-04T12:51:47.492Z,20.9
2019-03-04T12:52:37.838Z,20.9
2019-03-04T12:53:38.192Z,20.9
2019-03-04T12:54:17.946Z,21
2019-03-04T12:55:07.736Z,21
2019-03-04T12:55:58.064Z,20.9
2019-03-04T12:56:48.125Z,20.9
2019-03-04T12:57:38.182Z,21
2019-03-04T12:58:27.972Z,21
2019-03-04T12:59:18.027Z,21
2019-03-04T13:00:08.381Z,21
2019-03-04T13:00:58.414Z,21
2019-03-04T13:01:48.474Z,21
2019-03-04T13:02:38.541Z,21
2019-03-04T13:03:28.314Z,21
2019-03-04T13:04:18.654Z,21
2019-03-04T13:05:08.711Z,21
2019-03-04T13:05:58.775Z,21
2019-03-04T13:06:48.821Z,21
2019-03-04T13:07:38.888Z,21
2019-03-04T13:08:28.948Z,21
2019-03-04T13:09:19.009Z,21
2019-03-04T13:10:08.519Z,21
2019-03-04T13:10:59.129Z,21
2019-03-04T13:11:48.929Z,21
2019-03-04T13:12:39.238Z,21
2019-03-04T13:13:29.039Z,21
2019-03-04T13:14:19.351Z,21
2019-03-04T13:15:09.154Z,21
2019-03-04T13:15:58.924Z,21
2019-03-04T13:16:49.537Z,21
2019-03-04T13:17:39.593Z,21
2019-03-04T13:18:29.646Z,21
2019-03-04T13:19:19.431Z,21
2019-03-04T13:20:09.770Z,21.1
2019-03-04T13:20:59.829Z,21.1
2019-03-04T13:21:49.613Z,21.1
2019-03-04T13:22:39.946Z,21
2019-03-04T13:23:29.723Z,21.1
2019-03-04T13:24:20.110Z,21.1
2019-03-04T13:25:09.881Z,21.1
2019-03-04T13:26:00.183Z,21.1
2019-03-04T13:26:49.958Z,21.1
2019-03-04T13:27:40.013Z,21.1
2019-03-04T13:28:30.363Z,21.1
2019-03-04T13:29:20.413Z,21.1
2019-03-04T13:30:10.206Z,21.1
2019-03-04T13:31:00.546Z,21.1
2019-03-04T13:32:40.658Z,21.1
2019-03-04T13:33:30.702Z,21.1
2019-03-04T13:35:10.830Z,21.1
2019-03-04T13:36:00.897Z,21.1
2019-03-04T13:47:41.716Z,21.2
2019-03-04T13:50:11.882Z,21.2
2019-03-04T13:51:01.969Z,21.2
2019-03-04T13:52:42.066Z,21.2
2019-03-04T13:53:31.854Z,21.2
2019-03-04T13:54:22.186Z,21.2
2019-03-04T13:55:12.249Z,21.2
2019-03-04T13:56:52.369Z,21.2
2019-03-04T13:57:41.868Z,21.3
2019-03-04T13:58:32.477Z,21.3
2019-03-04T13:59:22.564Z,21.2
2019-03-04T14:00:12.596Z,21.3
2019-03-04T14:01:02.654Z,21.3
2019-03-04T14:01:52.727Z,21.2
2019-03-04T14:02:42.778Z,21.2
2019-03-04T14:03:32.288Z,21.2
2019-03-04T14:04:22.901Z,21.2
2019-03-04T14:05:13.006Z,21.2
2019-03-04T14:07:44.922Z,21.3
2019-03-04T14:08:35.075Z,21.3
2019-03-04T16:07:44.427Z,21.3
2019-03-04T16:08:34.209Z,21.2
2019-03-04T16:11:04.382Z,21.2
2019-03-04T16:11:54.707Z,21.2
2019-03-04T16:12:44.767Z,21.2
2019-03-04T16:14:24.622Z,21.2
2019-03-04T16:16:55.075Z,21.2
2019-03-04T16:18:35.176Z,21.2
2019-03-04T16:19:24.972Z,21.2
2019-03-04T16:21:55.416Z,21.2
2019-03-04T16:22:45.476Z,21.2
2019-03-04T16:23:35.256Z,21.2
2019-03-04T16:24:25.324Z,21.2
2019-03-04T16:27:45.823Z,21.2
2019-03-04T16:31:56.124Z,21.2
2019-03-04T16:42:46.878Z,21.1
2019-03-04T17:01:07.899Z,21.2
2019-03-04T17:19:29.471Z,21.1
2019-03-04T17:21:59.397Z,21.1
2019-03-04T17:22:49.706Z,21.1
2019-03-04T17:24:29.830Z,21.1
2019-03-04T17:25:19.875Z,21.1
2019-03-04T17:26:09.683Z,21.1
2019-03-04T17:26:59.740Z,21.1
2019-03-04T17:27:50.062Z,21.1
2019-03-04T17:28:39.581Z,21.1
2019-03-04T17:29:30.188Z,21.1
2019-03-04T17:30:19.979Z,21.1
2019-03-04T17:31:10.023Z,21.1
2019-03-04T17:32:00.344Z,21.1
2019-03-04T17:32:50.410Z,21.1
2019-03-04T17:33:40.470Z,21.1
2019-03-04T17:34:30.527Z,21.1
2019-03-04T17:35:20.584Z,21.1
2019-03-04T17:36:10.643Z,21.1
2019-03-04T17:37:00.702Z,21.1
2019-03-04T17:37:50.762Z,21.1
2019-03-04T17:38:40.816Z,21.1
2019-03-04T17:39:30.885Z,21.1
2019-03-04T17:40:20.953Z,21.1
2019-03-04T17:41:10.999Z,21.1
2019-03-04T17:42:01.043Z,21.1
2019-03-04T17:42:50.582Z,21.1
2019-03-04T17:43:40.912Z,21.1
2019-03-04T17:44:31.229Z,21.1
2019-03-04T17:45:21.282Z,21.1
2019-03-04T17:46:11.079Z,21.1
2019-03-04T17:47:01.402Z,21
2019-03-04T17:47:51.489Z,21.1
2019-03-04T17:48:41.577Z,21
2019-03-04T17:49:31.305Z,21.1
2019-03-04T17:50:21.639Z,21.1
2019-03-04T17:51:11.694Z,21.1
2019-03-04T17:52:01.478Z,21
2019-03-04T17:52:51.812Z,21.1
2019-03-04T17:53:41.871Z,21
2019-03-04T17:54:31.661Z,21
2019-03-04T17:55:21.991Z,21
2019-03-04T17:56:12.050Z,21
2019-03-04T17:57:02.107Z,21
2019-03-04T17:57:52.166Z,21
2019-03-04T17:58:42.225Z,21
2019-03-04T17:59:32.286Z,21